createdAt,value
2024-05-09T00:00:46.126Z,20.90
2024-05-09T00:03:13.961Z,23.47
2024-05-09T00:05:42.555Z,21.37
2024-05-09T00:08:10.854Z,20.77
2024-05-09T00:10:39.873Z,17.83
2024-05-09T00:13:08.290Z,18.07
2024-05-09T00:15:36.529Z,26.17
2024-05-09T00:18:05.847Z,17.63
2024-05-09T00:20:38.716Z,20.70
2024-05-09T00:23:12.615Z,19.53
2024-05-09T00:25:43.918Z,20.37
2024-05-09T00:28:12.617Z,21.17
2024-05-09T00:30:40.150Z,21.40
2024-05-09T00:33:09.478Z,20.13
2024-05-09T00:35:38.406Z,20.73
2024-05-09T00:38:06.157Z,18.10
2024-05-09T00:40:41.713Z,25.43
2024-05-09T00:43:15.407Z,18.77
2024-05-09T00:45:44.094Z,22.10
2024-05-09T00:48:17.356Z,18.07
2024-05-09T00:50:47.629Z,21.40
2024-05-09T00:53:16.656Z,21.50
2024-05-09T00:55:44.697Z,18.47
2024-05-09T00:58:16.214Z,18.30
2024-05-09T01:00:44.150Z,16.27
2024-05-09T01:03:13.386Z,17.93
2024-05-09T01:05:45.217Z,18.83
2024-05-09T01:08:13.571Z,19.30
2024-05-09T01:10:43.726Z,19.23
2024-05-09T01:13:12.474Z,17.67
2024-05-09T01:15:39.747Z,20.90
2024-05-09T01:18:10.860Z,21.27
2024-05-09T01:20:42.509Z,20.07
2024-05-09T01:23:14.398Z,20.13
2024-05-09T01:25:47.021Z,17.00
2024-05-09T01:28:16.028Z,25.73
2024-05-09T01:30:43.508Z,16.77
2024-05-09T01:33:12.122Z,21.80
2024-05-09T01:35:41.678Z,18.67
2024-05-09T01:38:12.760Z,17.60
2024-05-09T01:40:40.501Z,20.77
2024-05-09T01:43:09.767Z,20.73
2024-05-09T01:45:39.140Z,18.77
2024-05-09T01:48:08.026Z,20.50
2024-05-09T01:50:39.815Z,21.10
2024-05-09T01:53:14.926Z,18.77
2024-05-09T01:55:43.428Z,19.07
2024-05-09T01:58:11.204Z,19.00
2024-05-09T02:00:42.205Z,19.57
2024-05-09T02:03:15.831Z,19.33
2024-05-09T02:05:47.381Z,29.30
2024-05-09T02:08:22.376Z,21.30
2024-05-09T02:10:50.776Z,21.63
2024-05-09T02:13:18.380Z,19.87
2024-05-09T02:15:45.679Z,21.83
2024-05-09T02:18:13.480Z,18.47
2024-05-09T02:20:42.386Z,17.60
2024-05-09T02:23:10.739Z,19.63
2024-05-09T02:25:37.978Z,27.13
2024-05-09T02:28:05.699Z,29.57
2024-05-09T02:30:39.420Z,21.10
2024-05-09T02:33:13.554Z,23.00
2024-05-09T02:35:43.671Z,19.57
2024-05-09T02:38:12.107Z,19.80
2024-05-09T02:40:40.226Z,19.27
2024-05-09T02:43:10.806Z,23.00
2024-05-09T02:45:39.845Z,22.90
2024-05-09T02:48:10.648Z,20.47
2024-05-09T02:50:40.560Z,21.87
2024-05-09T02:53:09.354Z,20.10
2024-05-09T02:55:38.038Z,22.27
2024-05-09T02:58:07.591Z,20.17
2024-05-09T03:00:39.376Z,20.33
2024-05-09T03:03:12.598Z,22.17
2024-05-09T03:05:42.899Z,19.93
2024-05-09T03:08:10.307Z,20.73
2024-05-09T03:10:39.020Z,19.77
2024-05-09T03:13:14.861Z,20.83
2024-05-09T03:15:44.013Z,19.60
2024-05-09T03:18:12.214Z,18.60
2024-05-09T03:20:40.090Z,20.53
2024-05-09T03:23:09.478Z,19.53
2024-05-09T03:25:38.568Z,21.27
2024-05-09T03:28:06.489Z,20.27
2024-05-09T03:30:40.852Z,23.40
2024-05-09T03:33:18.766Z,19.83
2024-05-09T03:35:48.225Z,19.57
2024-05-09T03:38:15.945Z,20.20
2024-05-09T03:40:50.991Z,23.20
2024-05-09T03:43:19.429Z,22.17
2024-05-09T03:45:50.343Z,18.90
2024-05-09T03:48:17.659Z,20.20
2024-05-09T03:50:45.149Z,22.20
2024-05-09T03:53:14.420Z,32.30
2024-05-09T03:55:42.312Z,22.93
2024-05-09T03:58:09.554Z,25.70
2024-05-09T04:00:39.383Z,22.77
2024-05-09T04:03:10.824Z,19.20
2024-05-09T04:05:43.874Z,18.80
2024-05-09T04:08:14.456Z,18.80
2024-05-09T04:10:41.728Z,20.33
2024-05-09T04:13:10.299Z,20.60
2024-05-09T04:15:37.426Z,21.93
2024-05-09T04:18:04.894Z,21.20
2024-05-09T04:20:38.042Z,19.03
2024-05-09T04:23:12.347Z,27.17
2024-05-09T04:25:44.348Z,25.13
2024-05-09T04:28:12.273Z,22.90
2024-05-09T04:30:41.330Z,20.13
2024-05-09T04:33:12.254Z,22.57
2024-05-09T04:35:42.741Z,22.63
2024-05-09T04:38:10.791Z,24.57
2024-05-09T04:40:38.341Z,24.27
2024-05-09T04:43:07.112Z,24.50
2024-05-09T04:45:34.954Z,23.90
2024-05-09T04:48:02.678Z,22.97
2024-05-09T04:50:36.566Z,22.20
2024-05-09T04:53:10.841Z,24.60
2024-05-09T04:55:40.326Z,26.87
2024-05-09T04:58:14.113Z,25.27
2024-05-09T05:00:43.129Z,21.60
2024-05-09T05:03:14.227Z,22.10
2024-05-09T05:05:45.187Z,30.43
2024-05-09T05:08:18.506Z,26.40
2024-05-09T05:10:48.233Z,25.03
2024-05-09T05:13:18.258Z,23.53
2024-05-09T05:15:47.238Z,24.63
2024-05-09T05:18:15.680Z,22.73
2024-05-09T05:20:43.217Z,22.97
2024-05-09T05:23:15.522Z,24.73
2024-05-09T05:25:43.806Z,23.77
2024-05-09T05:28:11.375Z,25.00
2024-05-09T05:30:40.947Z,23.27
2024-05-09T05:33:12.580Z,23.67
2024-05-09T05:35:41.202Z,20.30
2024-05-09T05:38:09.982Z,20.87
2024-05-09T05:40:38.708Z,21.53
2024-05-09T05:43:15.908Z,22.07
2024-05-09T05:45:44.410Z,21.60
2024-05-09T05:48:13.150Z,21.13
2024-05-09T05:50:40.348Z,21.17
2024-05-09T05:53:10.437Z,21.90
2024-05-09T05:55:41.741Z,20.73
2024-05-09T05:58:14.708Z,19.63
2024-05-09T06:00:42.773Z,20.97
2024-05-09T06:03:12.619Z,24.73
2024-05-09T06:05:41.034Z,25.37
2024-05-09T06:08:08.818Z,26.80
2024-05-09T06:10:39.460Z,26.90
2024-05-09T06:13:12.041Z,28.47
2024-05-09T06:15:40.539Z,29.23
2024-05-09T06:18:10.570Z,30.00
2024-05-09T06:20:39.593Z,31.20
2024-05-09T06:23:07.899Z,31.27
2024-05-09T06:25:36.096Z,31.20
2024-05-09T06:28:03.918Z,32.70
2024-05-09T06:30:38.657Z,33.00
2024-05-09T06:33:11.152Z,30.90
2024-05-09T06:35:40.412Z,31.20
2024-05-09T06:38:11.586Z,31.50
2024-05-09T06:40:42.638Z,31.93
2024-05-09T06:43:17.376Z,32.73
2024-05-09T06:45:52.436Z,32.43
2024-05-09T06:48:29.651Z,32.60
2024-05-09T06:51:22.878Z,30.67
2024-05-09T06:53:49.967Z,30.83
2024-05-09T06:56:17.021Z,32.17
2024-05-09T06:58:44.129Z,33.57
2024-05-09T07:01:11.199Z,31.60
2024-05-09T07:03:41.692Z,33.53
2024-05-09T07:06:08.969Z,32.78
2024-05-09T07:08:36.288Z,31.88
2024-05-09T07:11:04.326Z,29.95
2024-05-09T07:13:31.447Z,30.83
2024-05-09T07:15:58.480Z,30.67
2024-05-09T07:18:25.715Z,32.10
2024-05-09T07:20:53.101Z,31.77
2024-05-09T07:23:20.237Z,33.13
2024-05-09T07:25:47.602Z,28.98
2024-05-09T07:28:17.926Z,29.33
2024-05-09T07:30:45.713Z,31.58
2024-05-09T07:33:22.302Z,32.30
2024-05-09T07:35:51.444Z,29.40
2024-05-09T07:38:18.796Z,30.23
2024-05-09T07:40:46.114Z,29.80
2024-05-09T07:43:14.615Z,31.92
2024-05-09T07:45:50.843Z,31.08
2024-05-09T07:52:37.352Z,32.70
2024-05-09T07:53:46.405Z,30.13
2024-05-09T07:56:17.330Z,30.27
2024-05-09T07:58:45.781Z,30.63
2024-05-09T08:01:13.038Z,32.25
2024-05-09T08:03:40.329Z,30.38
2024-05-09T08:06:07.772Z,31.75
2024-05-09T08:08:34.814Z,31.38
2024-05-09T08:11:03.052Z,29.45
2024-05-09T08:13:30.211Z,29.10
2024-05-09T08:15:57.373Z,32.22
2024-05-09T08:18:24.747Z,30.25
2024-05-09T08:20:52.396Z,29.80
2024-05-09T08:23:19.630Z,29.83
2024-05-09T08:25:46.704Z,29.23
2024-05-09T08:28:15.229Z,28.77
2024-05-09T08:30:43.337Z,28.25
2024-05-09T08:33:10.648Z,29.88
2024-05-09T08:35:37.985Z,29.02
2024-05-09T08:38:07.232Z,26.77
2024-05-09T08:40:37.338Z,28.40
2024-05-09T08:43:11.491Z,28.25
2024-05-09T08:45:43.633Z,28.38
2024-05-09T08:48:15.278Z,29.77
2024-05-09T08:50:43.793Z,28.35
2024-05-09T08:53:12.021Z,28.10
2024-05-09T08:55:42.802Z,26.70
2024-05-09T08:58:20.689Z,27.95
2024-05-09T09:00:49.192Z,28.73
2024-05-09T09:03:26.750Z,27.58
2024-05-09T09:05:59.651Z,27.35
2024-05-09T09:08:27.917Z,26.40
2024-05-09T09:10:58.489Z,25.52
2024-05-09T09:13:27.385Z,25.83
2024-05-09T09:15:58.223Z,25.63
2024-05-09T09:18:30.272Z,24.75
2024-05-09T09:20:57.626Z,24.40
2024-05-09T09:23:27.252Z,23.85
2024-05-09T09:26:01.243Z,22.27
2024-05-09T09:28:29.458Z,22.42
2024-05-09T09:31:04.105Z,22.88
2024-05-09T09:33:32.207Z,23.08
2024-05-09T09:36:00.642Z,22.38
2024-05-09T09:38:31.945Z,20.70
2024-05-09T09:41:05.141Z,22.17
2024-05-09T09:43:33.760Z,21.92
2024-05-09T09:46:02.480Z,21.13
2024-05-09T09:48:31.871Z,18.92
2024-05-09T09:51:00.529Z,19.95
2024-05-09T09:53:28.959Z,21.08
2024-05-09T09:55:56.483Z,20.10
2024-05-09T09:58:24.858Z,18.17
2024-05-09T10:00:52.196Z,15.70
2024-05-09T10:03:19.572Z,15.55
2024-05-09T10:05:48.458Z,14.23
2024-05-09T10:08:18.684Z,17.02
2024-05-09T10:10:50.551Z,14.93
2024-05-09T10:13:19.892Z,13.35
2024-05-09T10:15:52.521Z,13.25
2024-05-09T10:18:27.146Z,11.35
2024-05-09T10:20:56.559Z,9.88
2024-05-09T10:23:30.800Z,9.50
2024-05-09T10:26:00.251Z,6.80
2024-05-09T10:28:36.624Z,8.32
2024-05-09T10:31:16.242Z,9.35
2024-05-09T10:33:52.597Z,9.25
2024-05-09T10:36:25.490Z,10.02
2024-05-09T10:38:54.756Z,10.05
2024-05-09T10:41:23.561Z,10.35
2024-05-09T10:43:51.609Z,9.95
2024-05-09T10:46:19.650Z,9.38
2024-05-09T10:48:48.540Z,11.15
2024-05-09T10:51:18.194Z,12.02
2024-05-09T10:53:48.185Z,10.10
2024-05-09T10:56:16.325Z,10.45
2024-05-09T10:58:43.537Z,10.82
2024-05-09T11:01:11.652Z,11.68
2024-05-09T11:03:39.912Z,11.55
2024-05-09T11:06:09.680Z,11.27
2024-05-09T11:08:38.641Z,10.85
2024-05-09T11:11:08.468Z,11.05
2024-05-09T11:13:40.782Z,15.23
2024-05-09T11:16:21.502Z,7.63
2024-05-09T11:18:59.004Z,8.02
2024-05-09T11:21:26.758Z,8.52
2024-05-09T11:23:54.452Z,8.75
2024-05-09T11:26:22.195Z,7.82
2024-05-09T11:28:50.824Z,9.18
2024-05-09T11:31:18.362Z,8.35
2024-05-09T11:33:45.830Z,10.27
2024-05-09T11:36:13.898Z,9.50
2024-05-09T11:38:41.525Z,8.98
2024-05-09T11:41:08.735Z,7.45
2024-05-09T11:43:35.837Z,7.70
2024-05-09T11:46:03.814Z,8.27
2024-05-09T11:48:31.692Z,8.95
2024-05-09T11:50:59.068Z,8.75
2024-05-09T11:53:26.125Z,8.23
2024-05-09T11:55:53.358Z,9.30
2024-05-09T11:58:22.794Z,7.82
2024-05-09T12:00:50.305Z,8.18
2024-05-09T12:03:18.066Z,8.60
2024-05-09T12:05:45.429Z,9.13
2024-05-09T12:08:12.862Z,7.97
2024-05-09T12:10:40.091Z,7.82
2024-05-09T12:13:07.763Z,8.40
2024-05-09T12:15:38.989Z,10.73
2024-05-09T12:18:07.991Z,9.05
2024-05-09T12:20:38.836Z,10.02
2024-05-09T12:23:10.092Z,8.75
2024-05-09T12:25:40.011Z,8.38
2024-05-09T12:28:08.506Z,7.25
2024-05-09T12:30:40.038Z,10.15
2024-05-09T12:33:11.624Z,7.03
2024-05-09T12:35:40.086Z,8.18
2024-05-09T12:38:07.380Z,8.38
2024-05-09T12:40:37.595Z,5.93
2024-05-09T12:43:10.417Z,5.75
2024-05-09T12:45:39.201Z,8.57
2024-05-09T12:48:12.332Z,8.02
2024-05-09T12:50:41.226Z,7.38
2024-05-09T12:53:08.945Z,8.38
2024-05-09T12:55:44.165Z,8.45
2024-05-09T12:58:22.031Z,8.98
2024-05-09T13:00:50.741Z,5.70
2024-05-09T13:03:18.310Z,6.03
2024-05-09T13:05:46.108Z,6.80
2024-05-09T13:08:13.926Z,7.28
2024-05-09T13:10:41.589Z,6.65
2024-05-09T13:13:12.774Z,7.88
2024-05-09T13:15:40.164Z,7.68
2024-05-09T13:18:08.618Z,5.93
2024-05-09T13:20:37.098Z,7.15
2024-05-09T13:23:07.248Z,7.55
2024-05-09T13:25:35.799Z,7.65
2024-05-09T13:28:05.113Z,7.40
2024-05-09T13:30:39.457Z,8.05
2024-05-09T13:33:13.949Z,9.38
2024-05-09T13:35:46.883Z,8.50
2024-05-09T13:38:18.036Z,8.23
2024-05-09T13:40:45.435Z,9.90
2024-05-09T13:43:13.204Z,10.10
2024-05-09T13:45:40.513Z,11.00
2024-05-09T13:48:09.668Z,11.25
2024-05-09T13:50:37.350Z,9.95
2024-05-09T13:53:07.011Z,14.48
2024-05-09T13:55:37.717Z,14.73
2024-05-09T13:58:05.408Z,14.27
2024-05-09T14:00:43.783Z,14.93
2024-05-09T14:03:18.277Z,14.00
2024-05-09T14:05:47.641Z,13.57
2024-05-09T14:08:15.741Z,12.18
2024-05-09T14:10:46.955Z,14.32
2024-05-09T14:13:15.232Z,10.88
2024-05-09T14:15:42.559Z,8.45
2024-05-09T14:18:13.143Z,7.65
2024-05-09T14:20:42.454Z,8.77
2024-05-09T14:23:09.931Z,11.52
2024-05-09T14:25:41.843Z,10.50
2024-05-09T14:28:12.440Z,9.98
2024-05-09T14:30:40.291Z,10.48
2024-05-09T14:33:08.938Z,10.82
2024-05-09T14:35:38.711Z,10.38
2024-05-09T14:38:08.350Z,9.88
2024-05-09T14:40:42.171Z,10.52
2024-05-09T14:43:15.846Z,11.93
2024-05-09T14:45:44.741Z,12.93
2024-05-09T14:48:17.365Z,12.52
2024-05-09T14:50:44.635Z,13.48
2024-05-09T14:53:13.662Z,11.55
2024-05-09T14:55:42.938Z,10.85
2024-05-09T14:58:12.211Z,12.57
2024-05-09T15:00:46.291Z,12.82
2024-05-09T15:03:21.574Z,12.80
2024-05-09T15:05:49.703Z,12.35
2024-05-09T15:08:18.682Z,14.02
2024-05-09T15:10:46.839Z,11.55
2024-05-09T15:13:16.485Z,12.23
2024-05-09T15:15:44.694Z,11.73
2024-05-09T15:18:13.429Z,11.02
2024-05-09T15:20:41.492Z,11.38
2024-05-09T15:23:08.799Z,13.80
2024-05-09T15:25:36.827Z,12.10
2024-05-09T15:28:07.334Z,15.70
2024-05-09T15:30:35.307Z,9.52
2024-05-09T15:33:07.092Z,9.85
2024-05-09T15:35:35.551Z,9.02
2024-05-09T15:38:03.666Z,9.82
2024-05-09T15:40:38.538Z,11.50
2024-05-09T15:43:10.030Z,9.02
2024-05-09T15:45:38.973Z,8.80
2024-05-09T15:48:08.399Z,10.60
2024-05-09T15:50:39.625Z,9.00
2024-05-09T15:53:10.558Z,9.65
2024-05-09T15:55:38.548Z,9.73
2024-05-09T15:58:07.330Z,8.35
2024-05-09T16:00:39.280Z,9.18
2024-05-09T16:03:11.501Z,7.90
2024-05-09T16:05:40.670Z,10.35
2024-05-09T16:08:08.593Z,7.57
2024-05-09T16:10:38.692Z,8.15
2024-05-09T16:13:06.390Z,8.32
2024-05-09T16:15:33.629Z,9.23
2024-05-09T16:18:01.360Z,7.45
2024-05-09T16:20:38.013Z,8.60
2024-05-09T16:23:08.850Z,7.38
2024-05-09T16:25:37.221Z,6.55
2024-05-09T16:28:09.060Z,6.47
2024-05-09T16:30:39.823Z,6.85
2024-05-09T16:33:08.648Z,12.77
2024-05-09T16:35:37.190Z,6.80
2024-05-09T16:38:05.944Z,9.32
2024-05-09T16:40:38.292Z,7.55
2024-05-09T16:43:13.029Z,7.40
2024-05-09T16:45:46.235Z,9.93
2024-05-09T16:48:14.257Z,11.23
2024-05-09T16:50:41.884Z,9.63
2024-05-09T16:53:09.186Z,6.82
2024-05-09T16:55:36.744Z,6.38
2024-05-09T16:58:05.035Z,6.63
2024-05-09T17:00:40.257Z,8.25
2024-05-09T17:03:13.761Z,8.00
2024-05-09T17:05:42.767Z,8.10
2024-05-09T17:08:10.225Z,10.43
2024-05-09T17:10:37.600Z,7.57
2024-05-09T17:13:07.098Z,10.55
2024-05-09T17:15:37.450Z,7.30
2024-05-09T17:18:07.216Z,8.70
2024-05-09T17:20:36.953Z,8.65
2024-05-09T17:23:15.213Z,7.25
2024-05-09T17:25:43.325Z,7.25
2024-05-09T17:28:11.715Z,7.78
2024-05-09T17:30:41.608Z,8.45
2024-05-09T17:33:11.246Z,7.82
2024-05-09T17:35:40.011Z,9.57
2024-05-09T17:38:07.666Z,9.60
2024-05-09T17:40:37.222Z,9.20
2024-05-09T17:43:08.986Z,9.70
2024-05-09T17:45:39.703Z,9.70
2024-05-09T17:48:09.412Z,8.57
2024-05-09T17:50:37.907Z,9.60
2024-05-09T17:53:06.459Z,10.02
2024-05-09T17:55:34.235Z,8.98
2024-05-09T17:58:01.993Z,12.23
2024-05-09T18:00:37.296Z,10.70
2024-05-09T18:03:10.574Z,9.43
2024-05-09T18:05:38.362Z,11.20
2024-05-09T18:08:09.084Z,10.95
2024-05-09T18:10:39.037Z,10.55
2024-05-09T18:13:08.941Z,12.10
2024-05-09T18:15:36.688Z,12.02
2024-05-09T18:18:05.022Z,12.80
2024-05-09T18:20:41.407Z,13.32
2024-05-09T18:23:15.597Z,12.82
2024-05-09T18:25:44.685Z,11.60
2024-05-09T18:28:11.878Z,12.98
2024-05-09T18:30:40.401Z,11.40
2024-05-09T18:33:10.647Z,12.23
2024-05-09T18:35:38.324Z,12.55
2024-05-09T18:38:05.923Z,12.85
2024-05-09T18:40:36.373Z,13.55
2024-05-09T18:43:07.482Z,11.73
2024-05-09T18:45:37.874Z,13.00
2024-05-09T18:48:07.939Z,12.63
2024-05-09T18:50:39.167Z,12.82
2024-05-09T18:53:10.655Z,12.88
2024-05-09T18:55:38.756Z,12.30
2024-05-09T18:58:06.312Z,14.07
2024-05-09T19:00:37.050Z,12.70
2024-05-09T19:03:12.760Z,12.38
2024-05-09T19:05:43.882Z,13.60
2024-05-09T19:08:12.554Z,13.23
2024-05-09T19:10:40.156Z,12.85
2024-05-09T19:13:13.020Z,13.02
2024-05-09T19:15:42.447Z,13.25
2024-05-09T19:18:14.455Z,12.38
2024-05-09T19:20:42.565Z,11.60
2024-05-09T19:23:11.474Z,13.17
2024-05-09T19:25:38.957Z,13.33
2024-05-09T19:28:06.695Z,12.70
2024-05-09T19:30:39.678Z,13.13
2024-05-09T19:33:12.718Z,13.57
2024-05-09T19:35:41.758Z,13.53
2024-05-09T19:38:08.963Z,13.40
2024-05-09T19:40:36.657Z,12.90
2024-05-09T19:43:05.656Z,20.70
2024-05-09T19:45:35.442Z,14.80
2024-05-09T19:48:04.483Z,13.60
2024-05-09T19:50:40.182Z,14.60
2024-05-09T19:53:12.501Z,14.10
2024-05-09T19:55:40.943Z,15.43
2024-05-09T19:58:10.004Z,15.70
2024-05-09T20:00:40.556Z,15.63
2024-05-09T20:03:11.692Z,16.07
2024-05-09T20:05:39.647Z,16.53
2024-05-09T20:08:07.576Z,17.33
2024-05-09T20:10:36.228Z,16.37
2024-05-09T20:13:07.013Z,18.27
2024-05-09T20:15:36.760Z,20.93
2024-05-09T20:18:05.079Z,18.03
2024-05-09T20:20:39.124Z,18.50
2024-05-09T20:23:10.372Z,18.50
2024-05-09T20:25:37.834Z,17.93
2024-05-09T20:28:06.170Z,18.70
2024-05-09T20:30:35.421Z,17.63
2024-05-09T20:33:05.914Z,18.57
2024-05-09T20:35:34.606Z,18.90
2024-05-09T20:38:03.250Z,19.07
2024-05-09T20:40:36.275Z,20.63
2024-05-09T20:43:08.127Z,19.60
2024-05-09T20:45:36.029Z,20.27
2024-05-09T20:48:03.817Z,20.57
2024-05-09T20:50:38.561Z,19.67
2024-05-09T20:53:12.000Z,20.70
2024-05-09T20:55:40.509Z,31.60
2024-05-09T20:58:09.284Z,40.87
2024-05-09T21:00:40.598Z,22.60
2024-05-09T21:03:12.501Z,26.33
2024-05-09T21:05:40.805Z,41.43
2024-05-09T21:08:14.799Z,31.53
2024-05-09T21:10:42.136Z,23.57
2024-05-09T21:13:09.798Z,23.27
2024-05-09T21:15:37.135Z,20.67
2024-05-09T21:18:05.008Z,41.30
2024-05-09T21:20:34.569Z,56.97
2024-05-09T21:23:02.699Z,28.57
2024-05-09T21:25:30.443Z,27.97
2024-05-09T21:27:58.012Z,25.47
2024-05-09T21:30:37.762Z,23.20
2024-05-09T21:33:10.856Z,21.37
2024-05-09T21:35:39.831Z,21.90
2024-05-09T21:38:07.749Z,22.97
2024-05-09T21:40:37.195Z,22.13
2024-05-09T21:43:08.991Z,27.63
2024-05-09T21:45:37.288Z,20.50
2024-05-09T21:48:06.260Z,35.30
2024-05-09T21:50:40.138Z,23.90
2024-05-09T21:53:13.222Z,20.03
2024-05-09T21:55:42.166Z,20.83
2024-05-09T21:58:14.104Z,20.63
2024-05-09T22:00:45.529Z,25.57
2024-05-09T22:03:14.775Z,23.43
2024-05-09T22:05:44.173Z,22.27
2024-05-09T22:08:11.804Z,22.13
2024-05-09T22:10:39.021Z,22.43
2024-05-09T22:13:07.090Z,21.97
2024-05-09T22:15:40.120Z,26.03
2024-05-09T22:18:09.954Z,24.97
2024-05-09T22:20:44.686Z,22.77
2024-05-09T22:23:13.877Z,22.77
2024-05-09T22:25:41.051Z,20.47
2024-05-09T22:28:08.358Z,22.37
2024-05-09T22:30:39.181Z,21.53
2024-05-09T22:33:09.752Z,22.50
2024-05-09T22:35:38.776Z,20.73
2024-05-09T22:38:06.162Z,22.23
2024-05-09T22:40:42.749Z,20.20
2024-05-09T22:43:23.950Z,21.43
2024-05-09T22:45:54.888Z,20.30
2024-05-09T22:48:23.903Z,20.67
2024-05-09T22:50:51.768Z,22.10
2024-05-09T22:53:19.003Z,23.50
2024-05-09T22:55:46.630Z,23.50
2024-05-09T22:58:13.746Z,21.07
2024-05-09T23:00:40.953Z,22.70
2024-05-09T23:03:08.293Z,22.03
2024-05-09T23:05:35.825Z,20.87
2024-05-09T23:08:03.607Z,22.80
2024-05-09T23:10:36.213Z,28.47
2024-05-09T23:13:07.693Z,24.83
2024-05-09T23:15:38.919Z,37.57
2024-05-09T23:18:08.374Z,20.00
2024-05-09T23:20:38.977Z,20.47
2024-05-09T23:23:09.600Z,20.20
2024-05-09T23:25:37.912Z,23.10
2024-05-09T23:28:06.670Z,19.97
2024-05-09T23:30:38.439Z,21.10
2024-05-09T23:33:10.574Z,20.93
2024-05-09T23:35:38.892Z,19.00
2024-05-09T23:38:06.433Z,19.20
2024-05-09T23:40:39.319Z,17.80
2024-05-09T23:43:12.768Z,18.17
2024-05-09T23:45:40.912Z,17.50
2024-05-09T23:48:09.159Z,18.07
2024-05-09T23:50:38.431Z,18.70
2024-05-09T23:53:08.976Z,19.23
2024-05-09T23:55:37.514Z,17.83
2024-05-09T23:58:05.511Z,17.13
